Airfield :
LOGIN :

Register | Disclaimer

   EN    FR    IT 

 










Legend :    VFR   Marginal VFR   IFR   Intensive IFR   Very Intensive IFR
Visi :
Ceiling :
>= 8 km
>= 3000ft
5 to 8 km
1000 to 3000 ft
1500m to 5 km
500 to 1000 ft
800 to 1500m
200 to 500 ft
< 800m
< 200 ft
Symbols :   Thunderstorms  Fog  Heavy snow  Heavy precipitations  Wind > 20 kt
SIGMETs :     Misc.  Thunderstorms  Icing  Turbulence  Mountain Waves  Volcanic Ashes






- Airport Elevation : 195 ft


LFMY - Salon de Provence

CURRENT METAR :
  • 081000Z AUTO 00000KT CAVOK 04/02 Q1010 NOSIG

EXPIRED METARs :
  • 080930Z AUTO 00000KT CAVOK 03/01 Q1010 NOSIG
  • 080900Z AUTO 00000KT CAVOK 02/00 Q1010 NOSIG
  • 080830Z AUTO VRB01KT CAVOK ///// Q1010 NOSIG
  • 080800Z AUTO 03003KT CAVOK M01/M02 Q1010 NOSIG
  • 080730Z AUTO 00000KT CAVOK M02/M03 Q1010 NOSIG

TAF TAF LFMY
Valid from the 08 at 09:00 until the 09 at 09:00 UTC


080800Z 0809/0909 VRB03KT CAVOK TX12/0816Z TN07/0907Z
TEMPO 0818/0903 09012KT 4000 RA BKN010 BKN020
PROB30
TEMPO 0821/0903 2000 TSRA BKN010 BKN020 SCT025CB
TEMPO 0903/0907 BKN015



MET'MAP, your aeronautical weather chart ! - Copyright ORBIFLY December 2007 - Disclaimer

ORBIFLY MET'MAP TEAM :

Programming & Development : Alexandra Zaïnal
Original concept : Baudouin d'Aumeries
Technical & hardware support : Manuel Goepfert
Assistance : Marc-Olivier Méhu




SOURCES & CREDITS :

   NOAA